Powers, Michigan
Current Conditions -  °F | °C
As of 9:15 PM on Thursday 27 Nov 2014 (Local Time) from KESC Reporting Station
Clear Clear  
Wind Chill: -8°   Ceiling: Unl
Heat Index:   Visibility: 10mi
Dew Point: -8°   Wind: 5mph
Humidity: 66%   Direction: 280°W
Pressure: 30.33"   Gusts: NA
Location:  45.69°N, 87.53°W
Report Text: KESC 280315Z AUTO 28004KT 10SM CLR M17/M22 A3033 RMK AO1
Loading
Personal Weather Stations






























Interactive Weather Map New forecast layout! Learn more

10-Day Weather Forecast

Advertisements
Track Severe Weather on mobile